Point Comfort, TX

5:12 AM CST on March 05, 2015 (GMT -0600)
Palacios Municipal | Change Station
CLOSE
Current Station
Airport
Location: Palacios,
Elevation: 16 ft
Nearby Weather Stations
Active Advisory: Wind Advisory

Elev 16 ft 28.73 °N, 96.25 °W | Updated 19 minutes ago

Overcast
Overcast
40 °F
Feels Like 29 °F
N
28
Wind Variable Wind from North
Gusts 41 mph

Today
High -- | Low -- °F
--% Chance of Precip.
Yesterday
High -- | Low -- °F
Precip. -- in
6:47 AM 6:28 PM
Full, 100% visible
Pressure 30.16 in
Visibility 10.0 miles
Clouds Mostly Cloudy 1500 ft
Overcast 4900 ft
Windchill 29 °F
Dew Point 36 °F
Humidity 86%
Rainfall 0.05 in
Snow Depth Not available.
UV 0 out of 12
Pollen 8.90 out of 12
Air Quality Not available.
Flu Activity Not available.
METAR KPSX 051053Z AUTO 36024G36KT 10SM BKN015 OVC049 04/02 A3016 RMK AO2 PK WND 35037/0958 RAB16E29 SLP212 P0001 T00440022

More Conditions Fewer Conditions

Pressure 30.16 in
Visibility 10.0 miles
Clouds Mostly Cloudy 1500 ft
Overcast 4900 ft
Windchill 29 °F
Dew Point 36 °F
Humidity 86%
Rainfall 0.05 in
Snow Depth Not available.
UV 0 out of 12
Pollen 8.90 out of 12
Air Quality Not available.
Flu Activity Not available.
METAR KPSX 051053Z AUTO 36024G36KT 10SM BKN015 OVC049 04/02 A3016 RMK AO2 PK WND 35037/0958 RAB16E29 SLP212 P0001 T00440022

More Conditions Fewer Conditions

Nowcast | as of 5:07 am CST on March 5, 2015

Strong north winds gusting between 30 to 40 mph will continue through dawn...along with light to moderate rainfall. Rainfall amounts up to a tenth of an inch will be possible through 7 am CST.

×

10-Day Weather Forecast

Almanac

Astronomy

Mar. 05, 2015 Rise Set
Actual Time
Civil Twilight
Nautical Twilight
Astronomical Twilight
Moon
Length of Visible Light
Length of Day
Tomorrow will be .
, % of the Moon is Illuminated

Today's Extremes

State Highs State Lows

Community

WunderPhotos

Upload Photos

1,802,714 photos uploaded!

WunderBlogs® & News

Nearby

Air Quality

  Air Quality AQ Index Pollutant
Not available.

Snow Depth

Station Depth Elevation

Earthquake Activity

City Distance Mag. Time & Date
Minimum magnitude displayed is 2.5.

Coastal Water Temperatures

Place Temperature

Nearby Weather Stations

Wind Advisory
Statement as of 3:35 AM CST on March 05, 2015

... Wind Advisory remains in effect until 9 am CST this morning...

* timing... through this morning.

* Winds... sustained 25 to 35 mph.

* Impacts... strong wind may render driving difficult. Certain
objects blown about by the wind may cause injury.

Precautionary/preparedness actions...

A Wind Advisory means that sustained winds of 30 mph or greater...
or wind gusts around 40 mph or greater are expected. Winds this
strong can make driving difficult... especially for high profile
vehicles. Use extra caution.